sensor_id;sensor_type;location;lat;lon;timestamp;temperature;humidity
72320;SHT30;60269;52.502;16.732;2023-02-18T00:00:52;6.63;74.03
72320;SHT30;60269;52.502;16.732;2023-02-18T00:04:25;6.60;73.48
72320;SHT30;60269;52.502;16.732;2023-02-18T00:07:58;6.52;74.32
72320;SHT30;60269;52.502;16.732;2023-02-18T00:11:33;6.39;74.66
72320;SHT30;60269;52.502;16.732;2023-02-18T00:15:06;6.46;74.25
72320;SHT30;60269;52.502;16.732;2023-02-18T00:18:38;6.52;74.06
72320;SHT30;60269;52.502;16.732;2023-02-18T00:22:10;6.44;74.25
72320;SHT30;60269;52.502;16.732;2023-02-18T00:25:45;6.32;75.10
72320;SHT30;60269;52.502;16.732;2023-02-18T00:29:18;6.21;75.45
72320;SHT30;60269;52.502;16.732;2023-02-18T00:32:50;6.23;75.36
72320;SHT30;60269;52.502;16.732;2023-02-18T00:36:23;6.18;75.77
72320;SHT30;60269;52.502;16.732;2023-02-18T00:39:56;6.05;76.29
72320;SHT30;60269;52.502;16.732;2023-02-18T00:43:28;6.21;75.48
72320;SHT30;60269;52.502;16.732;2023-02-18T00:47:03;6.18;75.36
72320;SHT30;60269;52.502;16.732;2023-02-18T00:50:36;6.21;75.37
72320;SHT30;60269;52.502;16.732;2023-02-18T00:54:08;6.22;75.24
72320;SHT30;60269;52.502;16.732;2023-02-18T00:57:40;6.18;75.36
72320;SHT30;60269;52.502;16.732;2023-02-18T01:01:12;6.11;75.54
72320;SHT30;60269;52.502;16.732;2023-02-18T01:04:47;6.08;75.86
72320;SHT30;60269;52.502;16.732;2023-02-18T01:08:22;6.04;76.01
72320;SHT30;60269;52.502;16.732;2023-02-18T01:11:54;6.15;75.52
72320;SHT30;60269;52.502;16.732;2023-02-18T01:15:26;6.02;76.02
72320;SHT30;60269;52.502;16.732;2023-02-18T01:18:58;5.97;76.31
72320;SHT30;60269;52.502;16.732;2023-02-18T01:22:31;5.87;76.53
72320;SHT30;60269;52.502;16.732;2023-02-18T01:26:03;5.90;76.42
72320;SHT30;60269;52.502;16.732;2023-02-18T01:29:36;5.87;76.20
72320;SHT30;60269;52.502;16.732;2023-02-18T01:33:11;5.75;76.70
72320;SHT30;60269;52.502;16.732;2023-02-18T01:36:43;5.64;77.40
72320;SHT30;60269;52.502;16.732;2023-02-18T01:40:21;5.60;77.67
72320;SHT30;60269;52.502;16.732;2023-02-18T01:44:20;5.60;77.58
72320;SHT30;60269;52.502;16.732;2023-02-18T01:47:53;5.43;78.38
72320;SHT30;60269;52.502;16.732;2023-02-18T01:51:30;5.44;78.38
72320;SHT30;60269;52.502;16.732;2023-02-18T01:55:03;5.39;78.58
72320;SHT30;60269;52.502;16.732;2023-02-18T01:58:35;5.44;78.17
72320;SHT30;60269;52.502;16.732;2023-02-18T02:02:14;5.33;78.80
72320;SHT30;60269;52.502;16.732;2023-02-18T02:05:46;5.26;78.93
72320;SHT30;60269;52.502;16.732;2023-02-18T02:09:20;5.33;78.60
72320;SHT30;60269;52.502;16.732;2023-02-18T02:17:34;5.27;78.99
72320;SHT30;60269;52.502;16.732;2023-02-18T02:25:01;5.18;79.32
72320;SHT30;60269;52.502;16.732;2023-02-18T02:36:40;5.47;78.26
72320;SHT30;60269;52.502;16.732;2023-02-18T02:40:32;5.56;78.19
72320;SHT30;60269;52.502;16.732;2023-02-18T02:44:30;5.54;78.38
72320;SHT30;60269;52.502;16.732;2023-02-18T02:55:17;5.47;78.92
72320;SHT30;60269;52.502;16.732;2023-02-18T02:59:03;5.54;78.39
72320;SHT30;60269;52.502;16.732;2023-02-18T03:11:12;5.70;77.53
72320;SHT30;60269;52.502;16.732;2023-02-18T03:19:21;5.64;77.97
72320;SHT30;60269;52.502;16.732;2023-02-18T03:22:55;5.64;77.76
72320;SHT30;60269;52.502;16.732;2023-02-18T03:26:30;5.75;77.10
72320;SHT30;60269;52.502;16.732;2023-02-18T03:30:27;5.75;77.14
72320;SHT30;60269;52.502;16.732;2023-02-18T03:34:04;5.77;77.15
72320;SHT30;60269;52.502;16.732;2023-02-18T03:37:43;5.77;77.20
72320;SHT30;60269;52.502;16.732;2023-02-18T03:41:18;5.78;76.77
72320;SHT30;60269;52.502;16.732;2023-02-18T03:44:51;5.78;77.12
72320;SHT30;60269;52.502;16.732;2023-02-18T03:48:23;5.73;77.29
72320;SHT30;60269;52.502;16.732;2023-02-18T03:51:55;5.83;76.56
72320;SHT30;60269;52.502;16.732;2023-02-18T03:55:27;5.79;77.04
72320;SHT30;60269;52.502;16.732;2023-02-18T03:58:59;5.75;77.01
72320;SHT30;60269;52.502;16.732;2023-02-18T04:02:32;5.83;76.50
72320;SHT30;60269;52.502;16.732;2023-02-18T04:06:05;5.71;77.27
72320;SHT30;60269;52.502;16.732;2023-02-18T04:09:38;5.71;77.12
72320;SHT30;60269;52.502;16.732;2023-02-18T04:13:10;5.68;77.26
72320;SHT30;60269;52.502;16.732;2023-02-18T04:16:42;5.68;76.79
72320;SHT30;60269;52.502;16.732;2023-02-18T04:20:15;5.63;77.18
72320;SHT30;60269;52.502;16.732;2023-02-18T04:23:47;5.66;77.31
72320;SHT30;60269;52.502;16.732;2023-02-18T04:27:20;5.67;76.98
72320;SHT30;60269;52.502;16.732;2023-02-18T04:30:53;5.73;76.76
72320;SHT30;60269;52.502;16.732;2023-02-18T04:34:25;5.68;76.74
72320;SHT30;60269;52.502;16.732;2023-02-18T04:37:57;5.79;75.76
72320;SHT30;60269;52.502;16.732;2023-02-18T04:41:29;5.74;75.99
72320;SHT30;60269;52.502;16.732;2023-02-18T04:45:01;5.74;75.90
72320;SHT30;60269;52.502;16.732;2023-02-18T04:48:34;5.68;76.44
72320;SHT30;60269;52.502;16.732;2023-02-18T04:52:06;5.68;76.21
72320;SHT30;60269;52.502;16.732;2023-02-18T04:55:38;5.63;76.74
72320;SHT30;60269;52.502;16.732;2023-02-18T04:59:10;5.58;76.92
72320;SHT30;60269;52.502;16.732;2023-02-18T05:02:43;5.56;76.78
72320;SHT30;60269;52.502;16.732;2023-02-18T05:06:15;5.56;76.84
72320;SHT30;60269;52.502;16.732;2023-02-18T05:09:48;5.51;77.03
72320;SHT30;60269;52.502;16.732;2023-02-18T05:13:20;5.51;77.27
72320;SHT30;60269;52.502;16.732;2023-02-18T05:16:53;5.53;77.00
72320;SHT30;60269;52.502;16.732;2023-02-18T05:20:26;5.48;77.42
72320;SHT30;60269;52.502;16.732;2023-02-18T05:23:58;5.42;77.42
72320;SHT30;60269;52.502;16.732;2023-02-18T05:27:30;5.32;78.17
72320;SHT30;60269;52.502;16.732;2023-02-18T05:31:02;5.18;78.58
72320;SHT30;60269;52.502;16.732;2023-02-18T05:34:35;5.23;78.27
72320;SHT30;60269;52.502;16.732;2023-02-18T05:38:07;5.27;78.42
72320;SHT30;60269;52.502;16.732;2023-02-18T05:41:40;5.40;78.12
72320;SHT30;60269;52.502;16.732;2023-02-18T05:45:14;5.42;77.94
72320;SHT30;60269;52.502;16.732;2023-02-18T05:48:46;5.43;77.94
72320;SHT30;60269;52.502;16.732;2023-02-18T05:52:18;5.42;78.55
72320;SHT30;60269;52.502;16.732;2023-02-18T05:55:50;5.37;78.58
72320;SHT30;60269;52.502;16.732;2023-02-18T05:59:23;5.44;77.80
72320;SHT30;60269;52.502;16.732;2023-02-18T06:02:55;5.47;77.43
72320;SHT30;60269;52.502;16.732;2023-02-18T06:06:27;5.43;77.65
72320;SHT30;60269;52.502;16.732;2023-02-18T06:10:00;5.47;77.69
72320;SHT30;60269;52.502;16.732;2023-02-18T06:13:32;5.36;78.45
72320;SHT30;60269;52.502;16.732;2023-02-18T06:17:04;5.29;78.74
72320;SHT30;60269;52.502;16.732;2023-02-18T06:20:37;5.32;78.57
72320;SHT30;60269;52.502;16.732;2023-02-18T06:24:09;5.32;78.81
72320;SHT30;60269;52.502;16.732;2023-02-18T06:27:41;5.32;78.61
72320;SHT30;60269;52.502;16.732;2023-02-18T06:31:14;5.33;78.79
72320;SHT30;60269;52.502;16.732;2023-02-18T06:34:46;5.35;78.66
72320;SHT30;60269;52.502;16.732;2023-02-18T06:38:18;5.29;78.98
72320;SHT30;60269;52.502;16.732;2023-02-18T06:41:51;5.26;79.27
72320;SHT30;60269;52.502;16.732;2023-02-18T06:45:23;5.27;79.11
72320;SHT30;60269;52.502;16.732;2023-02-18T06:48:55;5.35;79.13
72320;SHT30;60269;52.502;16.732;2023-02-18T06:52:28;5.32;79.31
72320;SHT30;60269;52.502;16.732;2023-02-18T06:56:01;5.35;79.38
72320;SHT30;60269;52.502;16.732;2023-02-18T06:59:33;5.42;78.63
72320;SHT30;60269;52.502;16.732;2023-02-18T07:03:06;5.47;78.43
72320;SHT30;60269;52.502;16.732;2023-02-18T07:06:38;5.44;79.11
72320;SHT30;60269;52.502;16.732;2023-02-18T07:10:10;5.46;78.82
72320;SHT30;60269;52.502;16.732;2023-02-18T07:13:42;5.54;78.39
72320;SHT30;60269;52.502;16.732;2023-02-18T07:17:15;5.56;78.18
72320;SHT30;60269;52.502;16.732;2023-02-18T07:20:47;5.66;77.61
72320;SHT30;60269;52.502;16.732;2023-02-18T07:24:19;5.71;77.48
72320;SHT30;60269;52.502;16.732;2023-02-18T07:27:51;5.75;77.53
72320;SHT30;60269;52.502;16.732;2023-02-18T07:31:23;5.84;76.91
72320;SHT30;60269;52.502;16.732;2023-02-18T07:34:56;5.85;76.86
72320;SHT30;60269;52.502;16.732;2023-02-18T07:38:28;5.85;77.04
72320;SHT30;60269;52.502;16.732;2023-02-18T07:42:02;5.88;76.71
72320;SHT30;60269;52.502;16.732;2023-02-18T07:45:37;5.91;76.92
72320;SHT30;60269;52.502;16.732;2023-02-18T07:49:09;5.91;76.58
72320;SHT30;60269;52.502;16.732;2023-02-18T07:52:41;5.99;76.30
72320;SHT30;60269;52.502;16.732;2023-02-18T07:56:13;6.02;76.28
72320;SHT30;60269;52.502;16.732;2023-02-18T07:59:45;6.14;75.83
72320;SHT30;60269;52.502;16.732;2023-02-18T08:03:18;6.12;75.58
72320;SHT30;60269;52.502;16.732;2023-02-18T08:06:51;6.19;75.69
72320;SHT30;60269;52.502;16.732;2023-02-18T08:10:23;6.23;75.78
72320;SHT30;60269;52.502;16.732;2023-02-18T08:13:55;6.42;75.07
72320;SHT30;60269;52.502;16.732;2023-02-18T08:17:28;6.44;74.99
72320;SHT30;60269;52.502;16.732;2023-02-18T08:21:00;6.46;74.70
72320;SHT30;60269;52.502;16.732;2023-02-18T08:24:32;6.42;74.85
72320;SHT30;60269;52.502;16.732;2023-02-18T08:28:04;6.53;75.31
72320;SHT30;60269;52.502;16.732;2023-02-18T08:31:35;6.62;74.88
72320;SHT30;60269;52.502;16.732;2023-02-18T08:35:10;6.77;73.13
72320;SHT30;60269;52.502;16.732;2023-02-18T08:38:42;6.93;72.70
72320;SHT30;60269;52.502;16.732;2023-02-18T08:42:16;6.87;73.15
72320;SHT30;60269;52.502;16.732;2023-02-18T08:45:47;7.02;72.89
72320;SHT30;60269;52.502;16.732;2023-02-18T08:49:21;7.16;72.37
72320;SHT30;60269;52.502;16.732;2023-02-18T08:52:56;7.28;72.00
72320;SHT30;60269;52.502;16.732;2023-02-18T08:56:32;7.36;71.84
72320;SHT30;60269;52.502;16.732;2023-02-18T09:00:04;7.15;71.94
72320;SHT30;60269;52.502;16.732;2023-02-18T09:03:38;7.29;71.35
72320;SHT30;60269;52.502;16.732;2023-02-18T09:07:10;7.48;70.27
72320;SHT30;60269;52.502;16.732;2023-02-18T09:10:42;7.56;69.81
72320;SHT30;60269;52.502;16.732;2023-02-18T09:14:16;7.79;69.74
72320;SHT30;60269;52.502;16.732;2023-02-18T09:17:48;7.94;69.49
72320;SHT30;60269;52.502;16.732;2023-02-18T09:21:21;7.84;69.16
72320;SHT30;60269;52.502;16.732;2023-02-18T09:24:54;8.08;68.16
72320;SHT30;60269;52.502;16.732;2023-02-18T09:28:26;8.10;66.61
72320;SHT30;60269;52.502;16.732;2023-02-18T09:31:59;8.28;66.21
72320;SHT30;60269;52.502;16.732;2023-02-18T09:35:32;8.68;65.62
72320;SHT30;60269;52.502;16.732;2023-02-18T09:39:05;8.79;65.36
72320;SHT30;60269;52.502;16.732;2023-02-18T09:42:37;9.10;64.14
72320;SHT30;60269;52.502;16.732;2023-02-18T09:46:19;8.31;65.30
72320;SHT30;60269;52.502;16.732;2023-02-18T09:50:12;8.18;66.90
72320;SHT30;60269;52.502;16.732;2023-02-18T09:53:46;8.58;65.63
72320;SHT30;60269;52.502;16.732;2023-02-18T10:01:05;9.07;63.46
72320;SHT30;60269;52.502;16.732;2023-02-18T10:04:43;9.20;61.95
72320;SHT30;60269;52.502;16.732;2023-02-18T10:08:22;9.61;60.93
72320;SHT30;60269;52.502;16.732;2023-02-18T10:11:59;9.69;58.59
72320;SHT30;60269;52.502;16.732;2023-02-18T10:15:34;9.32;60.31
72320;SHT30;60269;52.502;16.732;2023-02-18T10:22:43;8.70;62.23
72320;SHT30;60269;52.502;16.732;2023-02-18T10:26:16;8.73;61.55
72320;SHT30;60269;52.502;16.732;2023-02-18T10:29:50;8.79;61.88
72320;SHT30;60269;52.502;16.732;2023-02-18T10:33:41;9.24;61.80
72320;SHT30;60269;52.502;16.732;2023-02-18T10:41:21;9.52;58.78
72320;SHT30;60269;52.502;16.732;2023-02-18T10:52:48;9.90;58.26
72320;SHT30;60269;52.502;16.732;2023-02-18T10:56:40;9.69;58.90
72320;SHT30;60269;52.502;16.732;2023-02-18T11:00:15;9.86;59.71
72320;SHT30;60269;52.502;16.732;2023-02-18T11:03:50;9.82;58.90
72320;SHT30;60269;52.502;16.732;2023-02-18T11:07:30;9.58;60.20
72320;SHT30;60269;52.502;16.732;2023-02-18T11:11:21;10.12;57.18
72320;SHT30;60269;52.502;16.732;2023-02-18T11:15:15;10.03;58.44
72320;SHT30;60269;52.502;16.732;2023-02-18T11:18:48;10.65;57.33
72320;SHT30;60269;52.502;16.732;2023-02-18T11:22:24;10.05;58.04
72320;SHT30;60269;52.502;16.732;2023-02-18T11:26:04;9.90;57.73
72320;SHT30;60269;52.502;16.732;2023-02-18T11:29:37;10.00;59.96
72320;SHT30;60269;52.502;16.732;2023-02-18T11:33:17;10.07;58.61
72320;SHT30;60269;52.502;16.732;2023-02-18T11:36:51;10.29;58.65
72320;SHT30;60269;52.502;16.732;2023-02-18T11:40:32;9.63;60.76
72320;SHT30;60269;52.502;16.732;2023-02-18T11:44:16;9.14;61.89
72320;SHT30;60269;52.502;16.732;2023-02-18T11:47:57;9.31;62.39
72320;SHT30;60269;52.502;16.732;2023-02-18T11:51:34;9.11;61.97
72320;SHT30;60269;52.502;16.732;2023-02-18T11:55:22;8.79;63.84
72320;SHT30;60269;52.502;16.732;2023-02-18T11:59:00;8.42;67.33
72320;SHT30;60269;52.502;16.732;2023-02-18T12:02:37;8.08;68.86
72320;SHT30;60269;52.502;16.732;2023-02-18T12:06:15;7.97;72.67
72320;SHT30;60269;52.502;16.732;2023-02-18T12:09:53;7.48;74.18
72320;SHT30;60269;52.502;16.732;2023-02-18T12:13:32;7.02;78.11
72320;SHT30;60269;52.502;16.732;2023-02-18T12:44:38;5.26;90.11
72320;SHT30;60269;52.502;16.732;2023-02-18T12:59:49;4.88;93.12
72320;SHT30;60269;52.502;16.732;2023-02-18T13:07:27;4.65;94.07
72320;SHT30;60269;52.502;16.732;2023-02-18T13:11:24;4.54;93.98
72320;SHT30;60269;52.502;16.732;2023-02-18T13:15:13;4.46;94.23
72320;SHT30;60269;52.502;16.732;2023-02-18T13:19:17;4.50;95.48
72320;SHT30;60269;52.502;16.732;2023-02-18T13:22:51;4.48;94.60
72320;SHT30;60269;52.502;16.732;2023-02-18T13:26:25;4.46;95.15
72320;SHT30;60269;52.502;16.732;2023-02-18T13:34:25;4.50;95.80
72320;SHT30;60269;52.502;16.732;2023-02-18T13:41:51;4.43;96.56
72320;SHT30;60269;52.502;16.732;2023-02-18T13:45:41;4.30;95.26
72320;SHT30;60269;52.502;16.732;2023-02-18T13:49:13;4.16;95.01
72320;SHT30;60269;52.502;16.732;2023-02-18T13:52:49;4.00;94.80
72320;SHT30;60269;52.502;16.732;2023-02-18T13:56:27;3.90;95.15
72320;SHT30;60269;52.502;16.732;2023-02-18T14:00:05;3.81;95.02
72320;SHT30;60269;52.502;16.732;2023-02-18T14:14:45;3.93;96.82
72320;SHT30;60269;52.502;16.732;2023-02-18T14:22:28;3.81;96.14
72320;SHT30;60269;52.502;16.732;2023-02-18T14:26:07;3.89;96.81
72320;SHT30;60269;52.502;16.732;2023-02-18T14:29:39;3.82;96.44
72320;SHT30;60269;52.502;16.732;2023-02-18T14:33:14;3.86;97.13
72320;SHT30;60269;52.502;16.732;2023-02-18T14:51:56;3.92;97.24
72320;SHT30;60269;52.502;16.732;2023-02-18T14:55:34;4.02;96.79
72320;SHT30;60269;52.502;16.732;2023-02-18T14:59:09;3.75;96.30
72320;SHT30;60269;52.502;16.732;2023-02-18T17:02:02;3.61;97.82
72320;SHT30;60269;52.502;16.732;2023-02-18T17:05:49;3.62;97.80
72320;SHT30;60269;52.502;16.732;2023-02-18T17:09:22;3.60;97.81
72320;SHT30;60269;52.502;16.732;2023-02-18T17:12:56;3.54;97.80
72320;SHT30;60269;52.502;16.732;2023-02-18T17:16:28;3.65;97.81
72320;SHT30;60269;52.502;16.732;2023-02-18T17:20:00;3.69;97.81
72320;SHT30;60269;52.502;16.732;2023-02-18T17:23:32;3.68;97.80
72320;SHT30;60269;52.502;16.732;2023-02-18T17:27:05;3.71;97.82
72320;SHT30;60269;52.502;16.732;2023-02-18T17:30:39;3.62;97.80
72320;SHT30;60269;52.502;16.732;2023-02-18T17:34:24;3.61;97.81
72320;SHT30;60269;52.502;16.732;2023-02-18T17:37:57;3.62;97.85
72320;SHT30;60269;52.502;16.732;2023-02-18T17:41:29;3.62;97.84
72320;SHT30;60269;52.502;16.732;2023-02-18T17:45:01;3.72;97.81
72320;SHT30;60269;52.502;16.732;2023-02-18T17:48:34;3.74;97.83
72320;SHT30;60269;52.502;16.732;2023-02-18T17:52:26;3.69;97.84
72320;SHT30;60269;52.502;16.732;2023-02-18T17:56:02;3.69;97.87
72320;SHT30;60269;52.502;16.732;2023-02-18T17:59:35;3.68;97.82
72320;SHT30;60269;52.502;16.732;2023-02-18T18:03:10;3.67;97.86
72320;SHT30;60269;52.502;16.732;2023-02-18T18:06:46;3.68;97.87
72320;SHT30;60269;52.502;16.732;2023-02-18T18:10:23;3.61;97.88
72320;SHT30;60269;52.502;16.732;2023-02-18T18:13:59;3.55;97.92
72320;SHT30;60269;52.502;16.732;2023-02-18T18:17:31;3.48;97.90
72320;SHT30;60269;52.502;16.732;2023-02-18T18:21:03;3.55;97.90
72320;SHT30;60269;52.502;16.732;2023-02-18T18:24:36;3.50;97.94
72320;SHT30;60269;52.502;16.732;2023-02-18T18:28:11;3.42;97.92
72320;SHT30;60269;52.502;16.732;2023-02-18T18:31:43;3.35;97.96
72320;SHT30;60269;52.502;16.732;2023-02-18T18:35:23;3.40;97.96
72320;SHT30;60269;52.502;16.732;2023-02-18T18:38:56;3.37;97.96
72320;SHT30;60269;52.502;16.732;2023-02-18T18:42:28;3.26;97.96
72320;SHT30;60269;52.502;16.732;2023-02-18T18:46:00;3.10;97.95
72320;SHT30;60269;52.502;16.732;2023-02-18T18:49:34;3.04;97.98
72320;SHT30;60269;52.502;16.732;2023-02-18T18:53:19;3.07;98.00
72320;SHT30;60269;52.502;16.732;2023-02-18T18:56:52;2.86;98.01
72320;SHT30;60269;52.502;16.732;2023-02-18T19:00:31;2.75;98.00
72320;SHT30;60269;52.502;16.732;2023-02-18T19:04:04;2.58;98.02
72320;SHT30;60269;52.502;16.732;2023-02-18T19:07:38;2.34;98.02
72320;SHT30;60269;52.502;16.732;2023-02-18T19:11:11;2.17;98.03
72320;SHT30;60269;52.502;16.732;2023-02-18T19:14:44;2.09;98.03
72320;SHT30;60269;52.502;16.732;2023-02-18T19:18:19;2.04;97.99
72320;SHT30;60269;52.502;16.732;2023-02-18T19:21:52;1.97;97.86
72320;SHT30;60269;52.502;16.732;2023-02-18T19:25:24;1.94;97.36
72320;SHT30;60269;52.502;16.732;2023-02-18T19:28:56;1.97;97.16
72320;SHT30;60269;52.502;16.732;2023-02-18T19:32:28;2.00;97.14
72320;SHT30;60269;52.502;16.732;2023-02-18T19:36:07;2.15;97.18
72320;SHT30;60269;52.502;16.732;2023-02-18T19:39:40;2.28;97.17
72320;SHT30;60269;52.502;16.732;2023-02-18T19:43:12;2.31;97.14
72320;SHT30;60269;52.502;16.732;2023-02-18T19:46:47;2.33;97.10
72320;SHT30;60269;52.502;16.732;2023-02-18T19:50:18;2.34;97.11
72320;SHT30;60269;52.502;16.732;2023-02-18T19:53:53;2.38;97.05
72320;SHT30;60269;52.502;16.732;2023-02-18T19:57:25;2.46;97.04
72320;SHT30;60269;52.502;16.732;2023-02-18T20:00:57;2.44;96.95
72320;SHT30;60269;52.502;16.732;2023-02-18T20:04:29;2.38;96.88
72320;SHT30;60269;52.502;16.732;2023-02-18T20:08:02;2.34;96.95
72320;SHT30;60269;52.502;16.732;2023-02-18T20:11:33;2.24;97.00
72320;SHT30;60269;52.502;16.732;2023-02-18T20:15:06;2.23;97.06
72320;SHT30;60269;52.502;16.732;2023-02-18T20:18:38;2.21;97.09
72320;SHT30;60269;52.502;16.732;2023-02-18T20:22:10;2.17;97.07
72320;SHT30;60269;52.502;16.732;2023-02-18T20:25:42;2.11;97.12
72320;SHT30;60269;52.502;16.732;2023-02-18T20:29:16;1.97;97.14
72320;SHT30;60269;52.502;16.732;2023-02-18T20:32:50;1.83;97.32
72320;SHT30;60269;52.502;16.732;2023-02-18T20:36:22;1.76;97.22
72320;SHT30;60269;52.502;16.732;2023-02-18T20:39:54;1.69;97.25
72320;SHT30;60269;52.502;16.732;2023-02-18T20:43:26;1.72;97.31
72320;SHT30;60269;52.502;16.732;2023-02-18T20:47:00;1.72;97.35
72320;SHT30;60269;52.502;16.732;2023-02-18T20:50:33;1.73;97.41
72320;SHT30;60269;52.502;16.732;2023-02-18T20:54:06;1.96;97.53
72320;SHT30;60269;52.502;16.732;2023-02-18T20:57:40;2.06;97.40
72320;SHT30;60269;52.502;16.732;2023-02-18T21:01:14;1.97;97.40
72320;SHT30;60269;52.502;16.732;2023-02-18T21:04:46;2.07;97.41
72320;SHT30;60269;52.502;16.732;2023-02-18T21:08:18;2.10;97.43
72320;SHT30;60269;52.502;16.732;2023-02-18T21:11:51;2.17;97.46
72320;SHT30;60269;52.502;16.732;2023-02-18T21:15:23;2.15;97.48
72320;SHT30;60269;52.502;16.732;2023-02-18T21:18:55;2.07;97.52
72320;SHT30;60269;52.502;16.732;2023-02-18T21:22:27;1.87;97.65
72320;SHT30;60269;52.502;16.732;2023-02-18T21:26:07;1.79;97.68
72320;SHT30;60269;52.502;16.732;2023-02-18T21:29:40;1.77;97.74
72320;SHT30;60269;52.502;16.732;2023-02-18T21:33:12;1.65;97.70
72320;SHT30;60269;52.502;16.732;2023-02-18T21:36:44;1.72;97.74
72320;SHT30;60269;52.502;16.732;2023-02-18T21:40:17;1.89;97.78
72320;SHT30;60269;52.502;16.732;2023-02-18T21:43:49;2.04;97.73
72320;SHT30;60269;52.502;16.732;2023-02-18T21:47:21;2.03;97.72
72320;SHT30;60269;52.502;16.732;2023-02-18T21:50:53;2.09;97.78
72320;SHT30;60269;52.502;16.732;2023-02-18T21:54:28;2.17;97.84
72320;SHT30;60269;52.502;16.732;2023-02-18T21:58:01;2.24;97.87
72320;SHT30;60269;52.502;16.732;2023-02-18T22:01:33;2.33;97.94
72320;SHT30;60269;52.502;16.732;2023-02-18T22:05:05;2.40;98.01
72320;SHT30;60269;52.502;16.732;2023-02-18T22:08:39;2.38;98.03
72320;SHT30;60269;52.502;16.732;2023-02-18T22:12:11;2.46;98.14
72320;SHT30;60269;52.502;16.732;2023-02-18T22:15:43;2.45;98.10
72320;SHT30;60269;52.502;16.732;2023-02-18T22:19:15;2.41;98.10
72320;SHT30;60269;52.502;16.732;2023-02-18T22:22:47;2.51;98.22
72320;SHT30;60269;52.502;16.732;2023-02-18T22:26:19;2.52;98.32
72320;SHT30;60269;52.502;16.732;2023-02-18T22:29:52;2.56;98.43
72320;SHT30;60269;52.502;16.732;2023-02-18T22:33:25;2.59;98.44
72320;SHT30;60269;52.502;16.732;2023-02-18T22:36:57;2.56;98.49
72320;SHT30;60269;52.502;16.732;2023-02-18T22:40:29;2.52;98.53
72320;SHT30;60269;52.502;16.732;2023-02-18T22:44:04;2.56;98.66
72320;SHT30;60269;52.502;16.732;2023-02-18T22:47:36;2.61;98.59
72320;SHT30;60269;52.502;16.732;2023-02-18T22:51:14;2.61;98.65
72320;SHT30;60269;52.502;16.732;2023-02-18T22:54:46;2.59;98.76
72320;SHT30;60269;52.502;16.732;2023-02-18T22:58:19;2.55;98.61
72320;SHT30;60269;52.502;16.732;2023-02-18T23:01:53;2.55;98.84
72320;SHT30;60269;52.502;16.732;2023-02-18T23:05:25;2.58;98.69
72320;SHT30;60269;52.502;16.732;2023-02-18T23:08:57;2.59;98.70
72320;SHT30;60269;52.502;16.732;2023-02-18T23:12:29;2.52;98.95
72320;SHT30;60269;52.502;16.732;2023-02-18T23:16:06;2.52;98.77
72320;SHT30;60269;52.502;16.732;2023-02-18T23:19:41;2.56;98.93
72320;SHT30;60269;52.502;16.732;2023-02-18T23:23:13;2.54;98.89
72320;SHT30;60269;52.502;16.732;2023-02-18T23:26:45;2.52;98.79
72320;SHT30;60269;52.502;16.732;2023-02-18T23:30:18;2.54;98.77
72320;SHT30;60269;52.502;16.732;2023-02-18T23:33:55;2.51;98.68
72320;SHT30;60269;52.502;16.732;2023-02-18T23:37:27;2.54;98.77
72320;SHT30;60269;52.502;16.732;2023-02-18T23:41:19;2.55;98.76
72320;SHT30;60269;52.502;16.732;2023-02-18T23:44:51;2.56;98.82
72320;SHT30;60269;52.502;16.732;2023-02-18T23:48:25;2.51;98.59
72320;SHT30;60269;52.502;16.732;2023-02-18T23:51:57;2.46;98.57
72320;SHT30;60269;52.502;16.732;2023-02-18T23:55:30;2.52;98.24
72320;SHT30;60269;52.502;16.732;2023-02-18T23:59:03;2.48;98.14
